Time;durP1;ratioP1;P1;durP2;ratioP2;P2;SDS_P1;SDS_P2;PMS_P1;PMS_P2;Temp;Humidity;BMP_temperature;BMP_pressure;BME280_temperature;BME280_humidity;BME280_pressure;Samples;Min_cycle;Max_cycle;Signal;HPM_P1;HPM_P2
2021/03/05 00:00:19;;;;;;;7.73;5.03;;;6.30;99.90;;;;;;5075327;28;20195;-75
2021/03/05 00:02:45;;;;;;;7.38;5.28;;;6.20;99.90;;;;;;5075574;28;20194;-72
2021/03/05 00:05:11;;;;;;;10.13;7.20;;;6.10;99.90;;;;;;5075416;28;20174;-76
2021/03/05 00:07:38;;;;;;;7.90;5.75;;;6.00;99.90;;;;;;5075181;28;20197;-72
2021/03/05 00:10:07;;;;;;;19.02;6.78;;;6.00;99.90;;;;;;5075462;28;20173;-77
2021/03/05 00:12:32;;;;;;;7.80;6.53;;;6.00;99.90;;;;;;5075362;28;20165;-76
2021/03/05 00:14:58;;;;;;;9.77;6.27;;;6.00;99.90;;;;;;5075091;28;20185;-73
2021/03/05 00:17:24;;;;;;;9.57;7.10;;;5.90;99.90;;;;;;5075080;28;20217;-78
2021/03/05 00:19:49;;;;;;;9.40;5.30;;;6.00;99.90;;;;;;5075066;28;20173;-73
2021/03/05 00:22:15;;;;;;;7.77;6.30;;;6.20;99.90;;;;;;5075269;28;20173;-78
2021/03/05 00:24:41;;;;;;;12.40;8.00;;;6.30;99.90;;;;;;5075032;28;20174;-74
2021/03/05 00:27:06;;;;;;;10.27;7.00;;;6.40;99.90;;;;;;5074865;28;20255;-75
2021/03/05 00:29:32;;;;;;;9.13;6.80;;;6.30;99.90;;;;;;5074742;28;20184;-76
2021/03/05 00:31:58;;;;;;;10.27;6.60;;;6.40;99.90;;;;;;5075012;28;20219;-73
2021/03/05 00:34:23;;;;;;;10.57;6.20;;;6.50;99.90;;;;;;5074838;28;20522;-73
2021/03/05 00:36:49;;;;;;;9.53;7.10;;;6.50;99.90;;;;;;5075039;28;20173;-76
2021/03/05 00:39:14;;;;;;;10.63;6.80;;;6.60;99.90;;;;;;5074528;28;20193;-75
2021/03/05 00:41:41;;;;;;;13.37;8.30;;;6.40;99.90;;;;;;5074526;28;20552;-72
2021/03/05 00:44:07;;;;;;;12.55;7.88;;;6.50;99.90;;;;;;5074849;28;20173;-77
2021/03/05 00:46:33;;;;;;;11.90;7.38;;;6.60;99.90;;;;;;5074479;28;20288;-73
2021/03/05 00:48:59;;;;;;;8.68;7.25;;;6.60;99.90;;;;;;5074436;28;20186;-74
2021/03/05 00:51:25;;;;;;;9.57;7.00;;;6.70;99.90;;;;;;5074647;28;20170;-73
2021/03/05 00:53:51;;;;;;;12.55;6.90;;;6.80;99.90;;;;;;5074696;28;20568;-75
2021/03/05 00:56:17;;;;;;;10.00;7.00;;;6.70;99.90;;;;;;5074315;28;20190;-76
2021/03/05 00:58:42;;;;;;;8.40;6.30;;;6.70;99.90;;;;;;5074037;28;20201;-73
2021/03/05 01:01:08;;;;;;;11.60;6.47;;;6.50;99.90;;;;;;5074298;28;20771;-73
2021/03/05 01:03:34;;;;;;;9.47;6.60;;;6.70;99.90;;;;;;5074296;28;20669;-72
2021/03/05 01:06:01;;;;;;;12.57;6.78;;;6.80;99.90;;;;;;5074423;28;20190;-73
2021/03/05 01:08:26;;;;;;;12.73;8.00;;;6.80;99.90;;;;;;5073865;28;20197;-76
2021/03/05 01:10:52;;;;;;;13.43;7.67;;;6.70;99.90;;;;;;5074173;28;20710;-76
2021/03/05 01:13:18;;;;;;;9.37;7.30;;;6.70;99.90;;;;;;5074285;28;20181;-77
2021/03/05 01:15:43;;;;;;;10.10;6.77;;;6.90;99.90;;;;;;5073919;28;20707;-77
2021/03/05 01:18:09;;;;;;;10.57;6.70;;;6.90;99.90;;;;;;5074041;28;20741;-75
2021/03/05 01:20:36;;;;;;;15.33;7.27;;;7.00;99.90;;;;;;5073812;28;20640;-77
2021/03/05 01:23:02;;;;;;;8.32;6.60;;;7.10;99.90;;;;;;5073926;28;20192;-75
2021/03/05 01:25:31;;;;;;;8.75;6.47;;;7.10;99.90;;;;;;5074044;28;20223;-76
2021/03/05 01:27:57;;;;;;;7.53;6.75;;;7.00;99.90;;;;;;5074118;28;20197;-74
2021/03/05 01:30:23;;;;;;;11.15;7.32;;;7.00;99.90;;;;;;5073561;28;20177;-78
2021/03/05 01:32:50;;;;;;;9.52;7.72;;;7.00;99.90;;;;;;5073966;28;20196;-72
2021/03/05 01:35:23;;;;;;;9.50;7.05;;;7.10;99.90;;;;;;5073825;28;20521;-75
2021/03/05 01:37:49;;;;;;;11.05;6.70;;;7.00;99.90;;;;;;5073695;28;20193;-72
2021/03/05 01:40:19;;;;;;;11.55;6.28;;;7.00;99.90;;;;;;5073425;28;20176;-73
2021/03/05 01:42:45;;;;;;;8.80;6.50;;;7.20;99.90;;;;;;5073796;28;20178;-77
2021/03/05 01:45:22;;;;;;;11.60;6.73;;;7.20;99.90;;;;;;5073738;28;20238;-74
2021/03/05 01:47:51;;;;;;;9.20;6.93;;;7.20;99.90;;;;;;5073598;28;20463;-74
2021/03/05 01:51:00;;;;;;;13.43;7.78;;;7.20;99.90;;;;;;5073545;28;20166;-73
2021/03/05 01:53:27;;;;;;;12.05;8.00;;;7.20;99.90;;;;;;5076004;28;20189;-75
2021/03/05 01:55:53;;;;;;;8.15;6.45;;;7.00;99.90;;;;;;5073925;28;20169;-74
2021/03/05 01:58:20;;;;;;;9.85;6.75;;;7.00;99.90;;;;;;5073348;28;20251;-73
2021/03/05 02:00:57;;;;;;;9.68;7.03;;;7.00;99.90;;;;;;5073495;28;20205;-75
2021/03/05 02:03:23;;;;;;;12.55;7.50;;;7.00;99.90;;;;;;5073431;28;20165;-77
2021/03/05 02:05:48;;;;;;;11.00;6.87;;;7.10;99.90;;;;;;5073182;28;20166;-75
2021/03/05 02:08:14;;;;;;;8.33;7.47;;;7.10;99.90;;;;;;5073317;28;20718;-75
2021/03/05 02:10:41;;;;;;;15.37;8.63;;;7.10;99.90;;;;;;5073347;28;20170;-74
2021/03/05 02:13:07;;;;;;;12.45;6.70;;;7.20;99.90;;;;;;5073301;28;20890;-73
2021/03/05 02:15:36;;;;;;;11.27;7.10;;;7.20;99.90;;;;;;5073163;28;20223;-74
2021/03/05 02:18:39;;;;;;;11.40;7.88;;;7.20;99.90;;;;;;5073137;28;20533;-76
2021/03/05 02:21:10;;;;;;;12.65;7.85;;;7.20;99.90;;;;;;5073061;28;20575;-72
2021/03/05 02:23:55;;;;;;;9.60;8.05;;;7.30;99.90;;;;;;5073345;28;20208;-73
2021/03/05 02:26:37;;;;;;;14.13;8.70;;;7.30;99.90;;;;;;5073030;28;20542;-74
2021/03/05 02:29:21;;;;;;;12.48;7.18;;;7.40;99.90;;;;;;5072883;28;20280;-76
2021/03/05 02:31:49;;;;;;;10.93;7.97;;;7.40;99.90;;;;;;5073169;28;20170;-75
2021/03/05 02:34:29;;;;;;;10.38;6.78;;;7.30;99.90;;;;;;5073267;28;20533;-77
2021/03/05 02:37:07;;;;;;;9.48;7.35;;;7.30;99.90;;;;;;5073209;28;20169;-74
2021/03/05 02:39:46;;;;;;;8.75;7.00;;;7.30;99.90;;;;;;5073037;28;20230;-73
2021/03/05 02:42:26;;;;;;;10.02;7.47;;;7.30;99.90;;;;;;5073070;28;20163;-76
2021/03/05 02:44:57;;;;;;;10.52;8.25;;;7.20;99.90;;;;;;5073196;28;20177;-73
2021/03/05 02:47:24;;;;;;;12.20;7.20;;;7.20;99.90;;;;;;5073105;28;20301;-72
2021/03/05 02:49:54;;;;;;;12.02;8.70;;;7.20;99.90;;;;;;5072801;28;20173;-76
2021/03/05 02:52:21;;;;;;;17.58;8.85;;;7.20;99.90;;;;;;5072942;28;20173;-77
2021/03/05 02:54:56;;;;;;;11.48;8.57;;;7.30;99.90;;;;;;5073029;28;20187;-76
2021/03/05 02:57:27;;;;;;;10.10;7.35;;;7.30;99.90;;;;;;5072825;28;20197;-76
2021/03/05 02:59:54;;;;;;;10.27;7.63;;;7.40;99.90;;;;;;5072727;28;20171;-77
2021/03/05 03:02:24;;;;;;;11.95;8.85;;;7.40;99.90;;;;;;5073263;28;20195;-76
2021/03/05 03:04:51;;;;;;;22.73;8.10;;;7.30;99.90;;;;;;5075215;28;20170;-74
2021/03/05 03:07:17;;;;;;;9.25;7.15;;;7.40;99.90;;;;;;5076378;28;20246;-78
2021/03/05 03:09:43;;;;;;;13.45;8.95;;;7.40;99.90;;;;;;5076367;28;20193;-76
2021/03/05 03:12:10;;;;;;;12.20;8.82;;;7.40;99.90;;;;;;5076472;28;20179;-75
2021/03/05 03:14:41;;;;;;;24.67;7.40;;;7.50;99.90;;;;;;5076638;28;20179;-74
2021/03/05 03:17:09;;;;;;;10.32;7.30;;;7.50;99.90;;;;;;5076437;28;20186;-76
2021/03/05 03:19:37;;;;;;;12.88;7.57;;;7.50;99.90;;;;;;5076397;28;20178;-72
2021/03/05 03:22:03;;;;;;;11.90;8.00;;;7.40;99.90;;;;;;5076502;28;20190;-76
2021/03/05 03:24:34;;;;;;;9.98;6.72;;;7.50;99.90;;;;;;5076485;28;20587;-73
2021/03/05 03:27:00;;;;;;;12.60;8.43;;;7.50;99.90;;;;;;5076213;28;20592;-73
2021/03/05 03:29:26;;;;;;;11.65;6.97;;;7.50;99.90;;;;;;5075854;28;20194;-74
2021/03/05 03:31:53;;;;;;;11.73;8.70;;;7.50;99.90;;;;;;5076141;28;20543;-76
2021/03/05 03:34:20;;;;;;;9.60;7.75;;;7.50;99.90;;;;;;5076157;28;20167;-77
2021/03/05 03:36:47;;;;;;;9.57;8.35;;;7.40;99.90;;;;;;5076055;28;20179;-75
2021/03/05 03:39:13;;;;;;;12.00;8.27;;;7.40;99.90;;;;;;5075796;28;20619;-77
2021/03/05 03:41:39;;;;;;;13.63;7.63;;;7.20;99.90;;;;;;5075952;28;20248;-76
2021/03/05 03:44:06;;;;;;;13.82;8.50;;;7.20;99.90;;;;;;5076325;28;20166;-78
2021/03/05 03:46:36;;;;;;;13.43;9.45;;;7.30;99.90;;;;;;5075800;28;20202;-76
2021/03/05 03:49:07;;;;;;;14.38;7.68;;;7.40;99.90;;;;;;5075609;28;20224;-75
2021/03/05 03:51:39;;;;;;;11.10;7.75;;;7.30;99.90;;;;;;5075951;28;20166;-76
2021/03/05 03:54:07;;;;;;;10.50;7.45;;;7.40;99.90;;;;;;5075797;28;20182;-76
2021/03/05 03:56:34;;;;;;;12.57;7.57;;;7.50;99.90;;;;;;5075655;28;20178;-73
2021/03/05 03:59:01;;;;;;;16.45;8.93;;;7.50;99.90;;;;;;5075500;28;20728;-77
2021/03/05 04:01:29;;;;;;;12.70;7.95;;;7.60;99.90;;;;;;5075788;28;20540;-74
2021/03/05 04:03:56;;;;;;;11.10;7.38;;;7.60;99.90;;;;;;5075547;28;20245;-78
2021/03/05 04:06:25;;;;;;;10.15;7.30;;;7.60;99.90;;;;;;5075410;28;20202;-76
2021/03/05 04:08:52;;;;;;;10.32;7.30;;;7.50;99.90;;;;;;5075248;28;20193;-74
2021/03/05 04:11:19;;;;;;;10.35;7.90;;;7.40;99.90;;;;;;5075942;28;20538;-75
2021/03/05 04:13:46;;;;;;;8.65;6.40;;;7.40;99.90;;;;;;5075581;28;20174;-76
2021/03/05 04:16:12;;;;;;;8.90;6.53;;;7.40;99.90;;;;;;5074820;28;20192;-76
2021/03/05 04:18:39;;;;;;;10.13;7.63;;;7.40;99.90;;;;;;5074952;28;20195;-75
2021/03/05 04:21:10;;;;;;;10.48;6.05;;;7.30;99.90;;;;;;5075275;28;20405;-75
2021/03/05 04:23:36;;;;;;;8.43;6.00;;;7.30;99.90;;;;;;5075334;28;20185;-75
2021/03/05 04:26:02;;;;;;;7.30;6.60;;;7.30;99.90;;;;;;5075159;28;20256;-77
2021/03/05 04:28:29;;;;;;;9.70;7.60;;;7.20;99.90;;;;;;5074873;28;20197;-76
2021/03/05 04:30:55;;;;;;;8.43;5.15;;;7.20;99.90;;;;;;5075245;28;20195;-74
2021/03/05 04:33:20;;;;;;;6.53;5.83;;;7.10;99.90;;;;;;5075021;28;20648;-74
2021/03/05 04:35:46;;;;;;;8.97;5.37;;;7.00;99.90;;;;;;5075010;28;20170;-77
2021/03/05 04:38:12;;;;;;;8.33;5.90;;;6.80;99.90;;;;;;5074809;28;20189;-74
2021/03/05 04:40:38;;;;;;;7.40;5.50;;;6.70;99.90;;;;;;5074796;28;20174;-74
2021/03/05 04:43:04;;;;;;;7.43;5.70;;;6.80;99.90;;;;;;5074994;28;20706;-74
2021/03/05 04:45:29;;;;;;;6.82;5.28;;;6.80;99.90;;;;;;5074734;28;20396;-74
2021/03/05 04:47:55;;;;;;;9.13;5.50;;;6.70;99.90;;;;;;5074961;28;20553;-72
2021/03/05 04:50:21;;;;;;;12.03;6.23;;;6.70;99.90;;;;;;5074523;28;20166;-72
2021/03/05 04:52:46;;;;;;;9.30;5.43;;;6.60;99.90;;;;;;5074734;28;20170;-75
2021/03/05 04:55:12;;;;;;;7.90;5.30;;;6.60;99.90;;;;;;5074615;28;20176;-77
2021/03/05 04:57:38;;;;;;;12.63;7.90;;;6.70;99.90;;;;;;5074640;28;20193;-74
2021/03/05 05:00:05;;;;;;;14.00;6.20;;;6.70;99.90;;;;;;5074316;28;20456;-75
2021/03/05 05:02:31;;;;;;;6.82;5.97;;;6.70;99.90;;;;;;5074685;28;20408;-74
2021/03/05 05:04:56;;;;;;;8.50;5.87;;;6.70;99.90;;;;;;5074364;28;20180;-71
2021/03/05 05:07:22;;;;;;;10.90;6.57;;;6.70;99.90;;;;;;5074548;28;20197;-73
2021/03/05 05:09:48;;;;;;;7.95;5.20;;;6.70;99.90;;;;;;5074209;28;20178;-71
2021/03/05 05:12:14;;;;;;;7.85;5.35;;;6.70;99.90;;;;;;5074351;28;20235;-73
2021/03/05 05:14:40;;;;;;;6.30;4.20;;;6.60;99.90;;;;;;5074215;28;20649;-75
2021/03/05 05:17:05;;;;;;;5.97;3.67;;;6.60;99.90;;;;;;5074034;28;20227;-75
2021/03/05 05:19:31;;;;;;;4.63;3.40;;;6.60;99.70;;;;;;5072684;28;20223;-72
2021/03/05 05:21:57;;;;;;;5.17;4.10;;;6.60;99.90;;;;;;5074121;28;20180;-74
2021/03/05 05:24:23;;;;;;;5.00;4.53;;;6.60;99.90;;;;;;5074119;28;20524;-72
2021/03/05 05:26:49;;;;;;;12.67;6.30;;;6.50;99.50;;;;;;5073353;28;20201;-76
2021/03/05 05:29:14;;;;;;;7.10;4.40;;;6.50;99.80;;;;;;5073583;28;20426;-74
2021/03/05 05:31:40;;;;;;;5.33;4.03;;;6.50;99.70;;;;;;5074242;28;20170;-73
2021/03/05 05:34:06;;;;;;;6.43;3.43;;;6.60;99.90;;;;;;5074269;28;20566;-74
2021/03/05 05:36:31;;;;;;;8.60;4.90;;;6.70;99.90;;;;;;5074113;28;20647;-74
2021/03/05 05:38:57;;;;;;;12.07;5.37;;;6.70;99.70;;;;;;5073499;28;20703;-73
2021/03/05 05:41:24;;;;;;;4.63;3.57;;;6.60;99.90;;;;;;5073869;28;20171;-74
2021/03/05 05:43:50;;;;;;;6.30;3.83;;;6.70;99.90;;;;;;5073733;28;20170;-75
2021/03/05 05:46:19;;;;;;;7.90;4.07;;;6.60;99.90;;;;;;5073766;28;20572;-73
2021/03/05 05:48:47;;;;;;;7.07;3.95;;;6.70;99.90;;;;;;5073495;28;20547;-74
2021/03/05 05:51:21;;;;;;;9.02;4.82;;;6.70;99.80;;;;;;5073623;28;20174;-75
2021/03/05 05:53:47;;;;;;;6.57;4.80;;;6.60;99.80;;;;;;5074022;28;20161;-75
2021/03/05 05:56:20;;;;;;;4.68;4.18;;;6.50;99.90;;;;;;5073467;28;20177;-74
2021/03/05 05:58:47;;;;;;;7.63;5.50;;;6.40;99.30;;;;;;5073458;28;20238;-73
2021/03/05 06:01:13;;;;;;;8.88;4.95;;;6.20;99.60;;;;;;5073497;28;20173;-74
2021/03/05 06:03:40;;;;;;;12.02;6.15;;;6.30;99.80;;;;;;5073539;28;20170;-77
2021/03/05 06:06:06;;;;;;;6.63;5.97;;;6.40;99.70;;;;;;5073355;28;20179;-75
2021/03/05 06:08:33;;;;;;;7.85;4.93;;;6.50;99.50;;;;;;5073033;28;20185;-76
2021/03/05 06:10:59;;;;;;;13.13;8.05;;;6.50;99.40;;;;;;5073291;28;20652;-73
2021/03/05 06:13:26;;;;;;;8.70;5.68;;;6.50;99.20;;;;;;5073302;28;20181;-76
2021/03/05 06:16:13;;;;;;;10.77;5.70;;;6.40;99.20;;;;;;5073385;28;20182;-75
2021/03/05 06:18:39;;;;;;;15.68;8.35;;;6.40;99.70;;;;;;5072828;28;20239;-73
2021/03/05 06:21:05;;;;;;;9.00;5.88;;;6.20;99.60;;;;;;5073163;28;20174;-73
2021/03/05 06:23:34;;;;;;;11.67;6.40;;;6.30;99.90;;;;;;5073352;28;20580;-75
2021/03/05 06:26:00;;;;;;;18.83;7.45;;;6.30;99.70;;;;;;5073003;28;20186;-73
2021/03/05 06:28:27;;;;;;;9.45;6.90;;;6.40;99.90;;;;;;5072861;28;20189;-73
2021/03/05 06:30:52;;;;;;;9.73;6.13;;;6.40;99.90;;;;;;5073194;28;20170;-73
2021/03/05 06:33:26;;;;;;;10.03;6.20;;;6.50;99.80;;;;;;5073179;28;20188;-76
2021/03/05 06:35:52;;;;;;;10.63;6.47;;;6.60;99.60;;;;;;5073075;28;20212;-76
2021/03/05 06:38:37;;;;;;;10.27;6.70;;;6.70;99.10;;;;;;5073344;28;20709;-75
2021/03/05 06:41:15;;;;;;;7.80;5.85;;;6.70;99.10;;;;;;5077048;28;20173;-72
2021/03/05 06:43:48;;;;;;;9.73;6.75;;;6.60;99.30;;;;;;5076997;28;20170;-71
2021/03/05 06:46:37;;;;;;;11.07;6.10;;;6.60;99.10;;;;;;5077162;28;20610;-72
2021/03/05 06:49:07;;;;;;;9.95;6.53;;;6.50;98.90;;;;;;5076719;28;20189;-72
2021/03/05 06:51:33;;;;;;;10.05;7.28;;;6.50;98.90;;;;;;5077025;28;20539;-74
2021/03/05 06:54:08;;;;;;;13.25;7.05;;;6.40;98.60;;;;;;5076883;28;20223;-77
2021/03/05 06:56:35;;;;;;;11.15;6.80;;;6.40;98.60;;;;;;5077010;28;20195;-74
2021/03/05 06:59:05;;;;;;;10.82;6.68;;;6.20;98.40;;;;;;5076511;28;20185;-76
2021/03/05 07:01:32;;;;;;;10.80;6.28;;;6.10;98.50;;;;;;5076752;28;20178;-73
2021/03/05 07:04:08;;;;;;;11.70;7.32;;;6.00;98.30;;;;;;5076757;28;20216;-76
2021/03/05 07:06:34;;;;;;;7.93;5.65;;;6.00;98.60;;;;;;5076688;28;20224;-75
2021/03/05 07:09:01;;;;;;;7.22;6.53;;;6.00;99.00;;;;;;5076427;28;20561;-74
2021/03/05 07:11:44;;;;;;;10.25;6.32;;;5.90;99.10;;;;;;5076553;28;20528;-77
2021/03/05 07:14:12;;;;;;;8.70;6.15;;;5.90;99.40;;;;;;5075220;28;20557;-77
2021/03/05 07:16:44;;;;;;;10.60;6.95;;;6.10;99.30;;;;;;5076364;28;20228;-77
2021/03/05 07:19:12;;;;;;;11.30;6.70;;;6.30;98.80;;;;;;5076162;28;20205;-72
2021/03/05 07:21:40;;;;;;;11.60;7.25;;;6.20;98.10;;;;;;5076409;28;20169;-76
2021/03/05 07:24:08;;;;;;;10.73;6.57;;;6.20;98.40;;;;;;5076437;28;20184;-73
2021/03/05 07:26:44;;;;;;;10.73;6.93;;;6.30;98.90;;;;;;5074890;28;20661;-73
2021/03/05 07:29:17;;;;;;;14.80;7.53;;;6.10;98.60;;;;;;5076256;28;20193;-76
2021/03/05 07:31:44;;;;;;;9.48;6.45;;;5.50;98.50;;;;;;5076293;28;20170;-73
2021/03/05 07:34:18;;;;;;;7.93;5.50;;;5.70;99.20;;;;;;5076111;28;20169;-77
2021/03/05 07:36:48;;;;;;;8.80;6.30;;;5.80;98.80;;;;;;5076097;28;20181;-74
2021/03/05 07:39:23;;;;;;;8.65;6.82;;;5.90;98.60;;;;;;5075914;28;20193;-73
2021/03/05 07:41:51;;;;;;;9.65;6.65;;;6.20;99.10;;;;;;5076032;28;20172;-74
2021/03/05 07:44:18;;;;;;;9.52;4.75;;;6.30;98.20;;;;;;5076104;28;20647;-75
2021/03/05 07:46:44;;;;;;;7.72;4.88;;;6.20;97.70;;;;;;5076041;28;20202;-75
2021/03/05 07:49:10;;;;;;;7.75;5.03;;;6.30;97.50;;;;;;5075006;28;20594;-77
2021/03/05 07:51:38;;;;;;;10.30;6.40;;;6.50;97.60;;;;;;5075514;28;20244;-76
2021/03/05 07:54:05;;;;;;;8.60;6.22;;;6.20;96.90;;;;;;5075724;28;20181;-73
2021/03/05 07:56:49;;;;;;;9.38;6.00;;;6.10;97.70;;;;;;5075834;28;20197;-75
2021/03/05 07:59:36;;;;;;;8.30;5.55;;;6.20;98.40;;;;;;5074239;28;20580;-73
2021/03/05 08:02:02;;;;;;;6.90;5.95;;;6.50;97.80;;;;;;5075667;28;20507;-77
2021/03/05 08:05:06;;;;;;;6.33;4.50;;;6.60;97.50;;;;;;5075512;28;20178;-75
2021/03/05 08:07:33;;;;;;;7.80;5.05;;;6.60;97.20;;;;;;5074224;28;20619;-76
2021/03/05 08:10:00;;;;;;;9.75;5.70;;;6.40;98.10;;;;;;5075367;28;20231;-74
2021/03/05 08:12:38;;;;;;;7.00;4.88;;;6.50;98.70;;;;;;5075626;28;20174;-74
2021/03/05 08:15:09;;;;;;;10.40;5.70;;;6.50;98.50;;;;;;5075497;28;20199;-76
2021/03/05 08:17:46;;;;;;;8.10;5.32;;;6.60;99.00;;;;;;5075328;28;20205;-74
2021/03/05 08:20:17;;;;;;;9.45;5.22;;;6.70;98.60;;;;;;5075101;28;20502;-75
2021/03/05 08:22:58;;;;;;;8.70;4.93;;;6.80;98.80;;;;;;5075282;28;20174;-75
2021/03/05 08:25:34;;;;;;;13.90;5.35;;;7.00;97.80;;;;;;5075169;28;20249;-76
2021/03/05 08:28:02;;;;;;;7.05;4.05;;;7.10;98.00;;;;;;5075209;28;20205;-73
2021/03/05 08:30:34;;;;;;;6.35;4.22;;;7.20;96.70;;;;;;5074959;28;20685;-74
2021/03/05 08:33:04;;;;;;;5.10;4.32;;;7.40;96.70;;;;;;5075125;28;20631;-74
2021/03/05 08:35:30;;;;;;;4.70;4.22;;;7.40;95.50;;;;;;5074892;28;20628;-75
2021/03/05 08:38:05;;;;;;;4.73;3.73;;;7.40;95.30;;;;;;5074856;28;20191;-75
2021/03/05 08:40:39;;;;;;;5.60;4.53;;;7.60;95.40;;;;;;5074912;28;20640;-76
2021/03/05 08:43:10;;;;;;;5.53;3.35;;;7.50;94.90;;;;;;5074815;28;20179;-77
2021/03/05 08:45:49;;;;;;;7.78;4.65;;;7.50;94.50;;;;;;5074922;28;20171;-75
2021/03/05 08:48:26;;;;;;;4.70;3.33;;;7.40;94.80;;;;;;5074779;28;20203;-77
2021/03/05 08:50:52;;;;;;;4.32;3.83;;;7.70;95.00;;;;;;5074870;28;20190;-72
2021/03/05 08:53:18;;;;;;;6.45;4.97;;;7.90;94.40;;;;;;5074714;28;20633;-73
2021/03/05 08:55:45;;;;;;;3.78;3.10;;;8.00;93.90;;;;;;5074685;28;20250;-74
2021/03/05 08:58:17;;;;;;;5.80;3.40;;;8.10;93.60;;;;;;5074472;28;20230;-75
2021/03/05 09:00:43;;;;;;;5.72;3.58;;;8.20;93.60;;;;;;5074327;28;20180;-78
2021/03/05 09:03:14;;;;;;;6.32;3.90;;;8.40;93.50;;;;;;5074479;28;20172;-76
2021/03/05 09:05:42;;;;;;;5.45;3.42;;;8.40;92.90;;;;;;5074253;28;20172;-75
2021/03/05 09:08:13;;;;;;;4.07;3.03;;;8.60;92.40;;;;;;5074251;28;20200;-72
2021/03/05 09:10:41;;;;;;;4.38;2.97;;;8.90;92.10;;;;;;5074136;28;20210;-75
2021/03/05 09:13:08;;;;;;;5.10;3.53;;;9.20;91.90;;;;;;5074302;28;20234;-74
2021/03/05 09:15:46;;;;;;;4.70;2.85;;;9.50;90.40;;;;;;5074094;28;20195;-77
2021/03/05 09:18:14;;;;;;;4.40;3.72;;;9.70;90.10;;;;;;5074116;28;20195;-73
2021/03/05 09:20:49;;;;;;;4.95;3.38;;;9.70;89.40;;;;;;5073881;28;20259;-75
2021/03/05 09:23:20;;;;;;;2.80;2.42;;;9.40;90.00;;;;;;5074144;28;20168;-73
2021/03/05 09:25:54;;;;;;;4.00;3.25;;;9.40;90.10;;;;;;5074144;28;20181;-74
2021/03/05 09:28:21;;;;;;;3.17;2.88;;;9.20;89.10;;;;;;5072686;28;20678;-76
2021/03/05 09:30:52;;;;;;;3.70;3.33;;;8.70;89.70;;;;;;5073954;28;20195;-74
2021/03/05 09:33:25;;;;;;;7.72;3.80;;;8.30;90.70;;;;;;5074387;28;20200;-76
2021/03/05 09:35:56;;;;;;;5.30;3.28;;;8.50;91.20;;;;;;5074090;28;20184;-74
2021/03/05 09:38:22;;;;;;;4.68;3.67;;;8.50;90.90;;;;;;5073740;28;20532;-72
2021/03/05 09:40:48;;;;;;;3.07;2.87;;;9.00;90.40;;;;;;5073788;28;20234;-74
2021/03/05 09:43:14;;;;;;;4.23;3.20;;;9.30;88.30;;;;;;5073875;28;20166;-76
2021/03/05 09:45:52;;;;;;;3.60;2.60;;;9.60;88.10;;;;;;5073482;28;20169;-74
2021/03/05 09:48:32;;;;;;;3.33;3.03;;;9.60;88.00;;;;;;5073461;28;20577;-75
2021/03/05 09:50:59;;;;;;;4.43;2.70;;;9.80;87.00;;;;;;5073359;28;20174;-76
2021/03/05 09:53:31;;;;;;;3.65;2.80;;;9.90;86.90;;;;;;5073444;28;20169;-73
2021/03/05 09:56:00;;;;;;;4.10;2.83;;;10.10;85.40;;;;;;5072177;28;20588;-73
2021/03/05 09:58:25;;;;;;;3.72;3.42;;;10.00;83.90;;;;;;5073279;28;20662;-78
2021/03/05 10:00:53;;;;;;;2.63;2.43;;;9.90;85.30;;;;;;5073530;28;20168;-73
2021/03/05 10:03:19;;;;;;;3.55;3.20;;;9.90;84.60;;;;;;5073646;28;20218;-77
2021/03/05 10:05:46;;;;;;;4.05;2.13;;;10.00;84.00;;;;;;5073495;28;20256;-75
2021/03/05 10:08:16;;;;;;;5.72;3.15;;;9.90;84.20;;;;;;5073288;28;20287;-72
2021/03/05 10:11:03;;;;;;;5.00;3.00;;;9.70;84.30;;;;;;5073178;28;20180;-75
2021/03/05 10:13:49;;;;;;;4.40;3.08;;;9.40;85.40;;;;;;5072904;28;20259;-76
2021/03/05 10:16:28;;;;;;;2.90;2.63;;;9.40;85.80;;;;;;5073068;28;20189;-76
2021/03/05 10:19:01;;;;;;;3.30;2.67;;;9.50;86.70;;;;;;5073148;28;20278;-72
2021/03/05 10:21:28;;;;;;;5.07;3.10;;;9.60;85.90;;;;;;5073428;28;20173;-75
2021/03/05 10:23:55;;;;;;;4.00;2.78;;;9.50;85.50;;;;;;5073225;28;20162;-76
2021/03/05 10:26:21;;;;;;;2.10;1.90;;;9.40;84.60;;;;;;5073184;28;20258;-74
2021/03/05 10:29:05;;;;;;;3.88;2.80;;;9.20;85.30;;;;;;5072954;28;20246;-75
2021/03/05 10:31:44;;;;;;;3.35;2.88;;;9.10;85.50;;;;;;5073213;28;20173;-76
2021/03/05 10:34:32;;;;;;;5.95;2.25;;;9.10;86.20;;;;;;5073353;28;20183;-75
2021/03/05 10:37:03;;;;;;;6.38;3.72;;;9.10;87.40;;;;;;5073181;28;20192;-73
2021/03/05 10:39:32;;;;;;;4.70;3.20;;;9.10;86.70;;;;;;5072863;28;20192;-73
2021/03/05 10:42:00;;;;;;;5.50;3.20;;;9.10;85.90;;;;;;5073003;28;20184;-75
2021/03/05 10:44:28;;;;;;;3.47;3.17;;;9.00;85.80;;;;;;5073240;28;20257;-72
2021/03/05 10:47:02;;;;;;;4.72;2.97;;;8.80;87.50;;;;;;5073056;28;20285;-75
2021/03/05 10:49:28;;;;;;;3.72;3.17;;;8.80;88.10;;;;;;5072871;28;20193;-73
2021/03/05 10:51:54;;;;;;;4.43;2.65;;;8.90;88.30;;;;;;5073035;28;20176;-74
2021/03/05 10:54:20;;;;;;;3.92;2.40;;;9.00;88.70;;;;;;5072881;28;20638;-73
2021/03/05 10:56:50;;;;;;;4.20;3.33;;;8.90;87.20;;;;;;5072847;28;20183;-76
2021/03/05 10:59:19;;;;;;;4.50;3.10;;;8.80;86.90;;;;;;5072684;28;20196;-73
2021/03/05 11:01:47;;;;;;;4.57;2.47;;;8.80;87.50;;;;;;5072869;28;20176;-75
2021/03/05 11:04:16;;;;;;;6.88;3.33;;;8.90;86.80;;;;;;5072943;28;20173;-74
2021/03/05 11:06:43;;;;;;;4.43;2.58;;;8.80;87.10;;;;;;5072785;28;20200;-75
2021/03/05 11:09:09;;;;;;;5.35;3.50;;;8.80;87.60;;;;;;5072661;28;20188;-74
2021/03/05 11:11:35;;;;;;;3.40;2.63;;;8.90;89.10;;;;;;5072788;28;20168;-75
2021/03/05 11:14:01;;;;;;;3.60;2.97;;;8.90;88.10;;;;;;5072787;28;20448;-73
2021/03/05 11:16:27;;;;;;;3.60;3.17;;;8.90;86.50;;;;;;5072695;28;20495;-73
2021/03/05 11:18:53;;;;;;;4.20;2.80;;;9.00;86.50;;;;;;5072403;28;20284;-76
2021/03/05 11:21:21;;;;;;;4.00;2.95;;;8.80;86.10;;;;;;5072829;28;20403;-75
2021/03/05 11:23:48;;;;;;;3.35;2.55;;;8.70;86.30;;;;;;5072860;28;20230;-76
2021/03/05 11:26:15;;;;;;;5.05;2.75;;;8.70;86.90;;;;;;5075433;28;20536;-74
2021/03/05 11:28:40;;;;;;;6.88;3.33;;;8.80;87.20;;;;;;5074678;28;20654;-74
2021/03/05 11:31:06;;;;;;;4.73;3.23;;;8.90;86.30;;;;;;5076338;28;20167;-73
2021/03/05 11:33:32;;;;;;;4.20;3.57;;;8.90;83.90;;;;;;5076228;28;20268;-75
2021/03/05 11:35:57;;;;;;;5.10;3.57;;;9.20;83.30;;;;;;5076288;28;20204;-75
2021/03/05 11:38:23;;;;;;;9.40;3.77;;;9.40;83.60;;;;;;5075899;28;20199;-76
2021/03/05 11:40:49;;;;;;;4.37;3.27;;;9.80;83.80;;;;;;5076287;28;20531;-75
2021/03/05 11:43:14;;;;;;;4.23;3.40;;;10.00;79.60;;;;;;5076058;28;20181;-72
2021/03/05 11:45:40;;;;;;;3.07;2.80;;;10.20;81.20;;;;;;5076150;28;20176;-78
2021/03/05 11:48:06;;;;;;;5.20;3.40;;;10.30;80.30;;;;;;5075791;28;20205;-75
2021/03/05 11:50:32;;;;;;;3.60;3.30;;;10.20;78.40;;;;;;5075792;28;20180;-74
2021/03/05 11:52:58;;;;;;;4.00;3.03;;;10.40;78.30;;;;;;5076314;28;20211;-76
2021/03/05 11:55:24;;;;;;;2.87;2.50;;;10.50;77.00;;;;;;5075829;28;20166;-77
2021/03/05 11:57:49;;;;;;;4.20;3.50;;;10.70;76.40;;;;;;5075535;28;20200;-74
2021/03/05 12:00:16;;;;;;;6.73;2.63;;;10.90;76.10;;;;;;5074393;28;20169;-74
2021/03/05 12:02:41;;;;;;;7.10;3.78;;;10.90;75.20;;;;;;5075881;28;20177;-78
2021/03/05 12:05:08;;;;;;;5.70;3.70;;;10.30;76.20;;;;;;5075535;28;20182;-73
2021/03/05 12:07:33;;;;;;;7.15;4.57;;;9.20;80.50;;;;;;5075391;28;20203;-74
2021/03/05 12:09:59;;;;;;;9.33;4.87;;;8.30;84.10;;;;;;5075413;28;20198;-72
2021/03/05 12:12:25;;;;;;;5.13;3.07;;;7.80;86.80;;;;;;5075518;28;20512;-74
2021/03/05 12:14:51;;;;;;;8.23;5.20;;;7.60;88.70;;;;;;5075396;28;20440;-74
2021/03/05 12:17:16;;;;;;;6.73;3.93;;;7.60;89.50;;;;;;5075323;28;20541;-71
2021/03/05 12:19:42;;;;;;;4.93;3.53;;;7.40;89.80;;;;;;5073940;28;20205;-74
2021/03/05 12:22:08;;;;;;;8.23;4.57;;;7.30;90.50;;;;;;5075679;28;20171;-73
2021/03/05 12:24:34;;;;;;;5.20;4.10;;;7.30;90.20;;;;;;5075291;28;20408;-74
2021/03/05 12:27:00;;;;;;;5.20;4.07;;;7.30;90.60;;;;;;5075260;28;20791;-75
2021/03/05 12:29:26;;;;;;;5.60;3.90;;;7.20;90.80;;;;;;5074895;28;20416;-75
2021/03/05 12:31:51;;;;;;;6.53;4.13;;;7.60;90.90;;;;;;5075155;28;20170;-77
2021/03/05 12:34:17;;;;;;;7.93;5.20;;;7.80;90.20;;;;;;5075273;28;20174;-76
2021/03/05 12:36:43;;;;;;;4.97;4.50;;;7.90;90.00;;;;;;5074608;28;20174;-72
2021/03/05 12:39:08;;;;;;;6.47;5.60;;;8.10;89.30;;;;;;5074795;28;20689;-74
2021/03/05 12:41:34;;;;;;;5.83;4.90;;;7.90;88.60;;;;;;5075275;28;20224;-78
2021/03/05 12:44:00;;;;;;;8.30;4.37;;;7.70;89.30;;;;;;5074925;28;20177;-73
2021/03/05 12:46:26;;;;;;;6.80;4.60;;;7.70;89.30;;;;;;5074798;28;20608;-77
2021/03/05 12:48:52;;;;;;;5.10;3.88;;;7.50;89.80;;;;;;5074645;28;20187;-73
2021/03/05 12:51:18;;;;;;;4.67;3.63;;;7.40;90.10;;;;;;5074718;28;20570;-74
2021/03/05 12:53:45;;;;;;;7.13;4.00;;;7.10;90.20;;;;;;5074612;28;20167;-76
2021/03/05 12:56:10;;;;;;;6.70;5.00;;;6.90;91.50;;;;;;5074750;28;20174;-77
2021/03/05 12:58:36;;;;;;;5.63;4.73;;;6.70;92.80;;;;;;5074348;28;20659;-76
2021/03/05 13:01:03;;;;;;;7.33;4.60;;;6.80;93.80;;;;;;5074682;28;20521;-76